Time;durP1;ratioP1;P1;durP2;ratioP2;P2;SDS_P1;SDS_P2;PMS_P1;PMS_P2;Temp;Humidity;BMP_temperature;BMP_pressure;BME280_temperature;BME280_humidity;BME280_pressure;Samples;Min_cycle;Max_cycle;Signal;HPM_P1;HPM_P2
2021/10/09 00:01:59;;;;;;;8.60;3.87;;;;;;;6.53;39.72;101817.22;5009133;28;20088;-76
2021/10/09 00:04:26;;;;;;;15.43;4.37;;;;;;;6.52;39.91;101799.47;4996013;28;20045;-78
2021/10/09 00:06:52;;;;;;;6.93;3.83;;;;;;;6.48;40.28;101810.94;5006193;28;20477;-77
2021/10/09 00:09:19;;;;;;;16.23;3.70;;;;;;;6.47;40.15;101808.59;5006147;28;20049;-77
2021/10/09 00:11:46;;;;;;;7.67;4.23;;;;;;;6.43;40.04;101808.50;5022138;28;20085;-79
2021/10/09 00:14:13;;;;;;;7.00;3.47;;;;;;;6.44;40.33;101810.06;4998663;28;20085;-77
2021/10/09 00:16:43;;;;;;;11.30;4.23;;;;;;;6.45;39.96;101810.84;4999362;28;20122;-77
2021/10/09 00:19:11;;;;;;;12.40;4.00;;;;;;;6.43;40.10;101803.09;5005247;28;20410;-78
2021/10/09 00:21:43;;;;;;;7.03;3.33;;;;;;;6.41;40.35;101805.38;5001690;28;20059;-77
2021/10/09 00:24:15;;;;;;;11.57;3.00;;;;;;;6.37;39.72;101807.22;5009464;28;20490;-76
2021/10/09 00:26:42;;;;;;;7.50;3.00;;;;;;;6.32;40.10;101783.19;5011733;28;20057;-77
2021/10/09 00:29:10;;;;;;;6.77;3.50;;;;;;;6.29;40.16;101802.78;5002090;28;20497;-78
2021/10/09 00:31:37;;;;;;;11.57;3.63;;;;;;;6.28;40.22;101801.19;5002941;28;20137;-77
2021/10/09 00:34:04;;;;;;;8.23;3.30;;;;;;;6.28;40.18;101800.41;4995559;28;20082;-76
2021/10/09 00:36:31;;;;;;;11.20;3.20;;;;;;;6.24;40.08;101797.63;5004507;28;20141;-79
2021/10/09 00:38:58;;;;;;;9.50;4.13;;;;;;;6.26;40.36;101797.28;5007321;28;20602;-79
2021/10/09 00:41:25;;;;;;;9.60;3.23;;;;;;;6.20;40.48;101799.44;5003529;28;20077;-77
2021/10/09 00:43:53;;;;;;;9.20;3.53;;;;;;;6.21;40.56;101798.31;4995350;28;20149;-77
2021/10/09 00:46:19;;;;;;;11.87;3.03;;;;;;;6.18;40.73;101804.41;5018962;28;20077;-77
2021/10/09 00:48:47;;;;;;;11.93;3.17;;;;;;;6.20;40.41;101799.44;5006720;28;20081;-77
2021/10/09 00:51:14;;;;;;;8.57;3.90;;;;;;;6.18;40.43;101807.09;5002118;28;20541;-77
2021/10/09 00:53:43;;;;;;;17.30;3.50;;;;;;;6.18;40.69;101807.09;5011762;28;20081;-77
2021/10/09 00:56:11;;;;;;;9.03;3.10;;;;;;;6.17;40.35;101802.84;5007893;28;20473;-78
2021/10/09 00:58:38;;;;;;;6.47;3.53;;;;;;;6.19;40.54;101797.88;5011219;28;20422;-78
2021/10/09 01:01:05;;;;;;;8.43;3.20;;;;;;;6.16;41.11;101795.88;5005350;28;20089;-77
2021/10/09 01:03:33;;;;;;;7.07;3.97;;;;;;;6.10;41.25;101795.38;5006559;28;20555;-79
2021/10/09 01:06:00;;;;;;;6.70;3.47;;;;;;;6.08;40.95;101791.44;5006085;28;20421;-78
2021/10/09 01:08:27;;;;;;;9.13;3.57;;;;;;;6.07;41.14;101789.88;4997902;28;20089;-77
2021/10/09 01:10:54;;;;;;;12.83;3.93;;;;;;;6.08;41.08;101791.44;5023077;28;20136;-77
2021/10/09 01:13:21;;;;;;;12.57;3.80;;;;;;;6.06;41.02;101782.91;5007660;28;20082;-77
2021/10/09 01:15:47;;;;;;;10.23;3.43;;;;;;;6.05;40.85;101800.22;5002355;28;20085;-78
2021/10/09 01:18:17;;;;;;;8.23;3.47;;;;;;;6.04;40.85;101787.88;5006110;28;20077;-79
2021/10/09 01:20:51;;;;;;;9.53;4.10;;;;;;;6.04;40.75;101793.25;5012134;28;20082;-78
2021/10/09 01:23:21;;;;;;;8.33;3.63;;;;;;;6.04;40.72;101790.56;5002272;28;20502;-78
2021/10/09 01:25:49;;;;;;;11.93;3.70;;;;;;;6.02;41.27;101792.81;5009965;28;20136;-77
2021/10/09 01:28:16;;;;;;;8.33;3.40;;;;;;;6.00;40.72;101800.47;5013890;28;20133;-78
2021/10/09 01:30:43;;;;;;;7.73;3.60;;;;;;;5.98;40.57;101786.56;5029341;28;20117;-77
2021/10/09 01:33:10;;;;;;;5.90;3.40;;;;;;;5.95;40.81;101790.72;5006612;28;20107;-78
2021/10/09 01:36:03;;;;;;;7.20;4.00;;;;;;;5.94;41.25;101788.38;5003482;28;20438;-78
2021/10/09 01:38:30;;;;;;;9.60;3.80;;;;;;;5.93;41.52;101794.88;5009227;28;20129;-77
2021/10/09 01:40:57;;;;;;;9.20;3.97;;;;;;;5.92;41.34;101793.31;5011768;28;20137;-78
2021/10/09 01:43:25;;;;;;;10.40;4.30;;;;;;;5.89;41.22;101794.03;5004505;28;20054;-77
2021/10/09 01:45:52;;;;;;;12.50;4.30;;;;;;;5.88;41.32;101798.63;5011000;28;20050;-78
2021/10/09 01:48:29;;;;;;;6.73;3.63;;;;;;;5.83;41.60;101796.16;5007612;28;20069;-76
2021/10/09 01:50:56;;;;;;;12.93;4.97;;;;;;;5.86;41.44;101800.09;5001275;28;20078;-79
2021/10/09 01:53:23;;;;;;;7.70;3.57;;;;;;;5.82;41.25;101798.06;5004007;28;20086;-78
2021/10/09 01:55:50;;;;;;;9.80;3.83;;;;;;;5.82;41.39;101795.38;5013589;28;20054;-77
2021/10/09 01:58:17;;;;;;;10.93;3.90;;;;;;;5.79;41.24;101792.59;5013600;28;20137;-76
2021/10/09 02:00:44;;;;;;;20.60;4.10;;;;;;;5.75;41.60;101800.56;5010291;28;20074;-77
2021/10/09 02:03:11;;;;;;;9.67;4.00;;;;;;;5.74;41.37;101790.91;5000974;28;20431;-77
2021/10/09 02:05:38;;;;;;;8.60;3.40;;;;;;;5.71;41.95;101772.75;5036244;28;20080;-76
2021/10/09 02:08:05;;;;;;;11.67;3.43;;;;;;;5.68;41.85;101784.19;5006489;28;20137;-78
2021/10/09 02:10:34;;;;;;;8.10;3.70;;;;;;;5.59;42.03;101788.97;5012668;28;20084;-78
2021/10/09 02:13:04;;;;;;;9.13;3.80;;;;;;;5.64;41.47;101798.72;5013070;28;20509;-78
2021/10/09 02:15:41;;;;;;;9.03;3.70;;;;;;;5.60;41.63;101793.22;5014412;28;20057;-79
2021/10/09 02:26:34;;;;;;;14.80;5.63;;;;;;;5.51;41.99;101789.09;5009659;28;20502;-78
2021/10/09 02:29:01;;;;;;;18.17;5.53;;;;;;;5.49;41.86;101797.53;5013099;28;20117;-77
2021/10/09 02:31:29;;;;;;;18.80;5.40;;;;;;;5.51;42.18;101791.81;5003732;28;20052;-77
2021/10/09 02:33:56;;;;;;;18.47;5.73;;;;;;;5.47;42.88;101795.19;5011601;28;20073;-77
2021/10/09 02:36:23;;;;;;;10.07;5.43;;;;;;;5.47;42.45;101795.19;5002107;28;20081;-77
2021/10/09 02:38:50;;;;;;;14.10;5.97;;;;;;;5.46;42.80;101787.44;4999898;28;20137;-77
2021/10/09 02:41:16;;;;;;;21.50;6.73;;;;;;;5.48;42.69;101785.19;4994817;28;20129;-79
2021/10/09 02:43:43;;;;;;;20.23;6.70;;;;;;;5.50;42.98;101793.72;5008317;28;20141;-78
2021/10/09 02:46:10;;;;;;;33.17;8.23;;;;;;;5.47;43.37;101784.41;5006124;28;20081;-77
2021/10/09 02:48:38;;;;;;;30.23;9.07;;;;;;;5.49;42.95;101781.38;5035945;28;20107;-76
2021/10/09 02:51:05;;;;;;;28.43;10.60;;;;;;;5.49;42.76;101781.38;5007070;28;20462;-77
2021/10/09 02:53:32;;;;;;;32.40;11.17;;;;;;;5.47;43.51;101775.53;5044091;28;20133;-76
2021/10/09 02:56:00;;;;;;;27.07;10.13;;;;;;;5.47;42.85;101780.91;5011812;28;20058;-78
2021/10/09 02:58:26;;;;;;;27.30;9.67;;;;;;;5.43;43.35;101777.38;5006306;28;20129;-79
2021/10/09 03:00:53;;;;;;;33.50;10.47;;;;;;;5.39;43.02;101777.28;4996473;28;20137;-77
2021/10/09 03:03:20;;;;;;;32.37;11.47;;;;;;;5.36;42.58;101782.56;4995928;28;20085;-78
2021/10/09 03:05:47;;;;;;;33.40;11.10;;;;;;;5.32;43.18;101770.88;5006252;28;20081;-78
2021/10/09 03:08:14;;;;;;;35.10;12.50;;;;;;;5.27;43.17;101784.59;5012166;28;20085;-78
2021/10/09 03:10:41;;;;;;;35.13;11.20;;;;;;;5.26;42.82;101772.25;5003184;28;20076;-77
2021/10/09 03:13:08;;;;;;;37.17;11.57;;;;;;;5.24;43.39;101785.25;5010250;28;20058;-78
2021/10/09 03:15:35;;;;;;;38.00;12.83;;;;;;;5.22;42.81;101776.75;5000733;28;20050;-78
2021/10/09 03:18:02;;;;;;;38.73;13.30;;;;;;;5.21;43.63;101783.25;5011187;28;20836;-77
2021/10/09 03:20:29;;;;;;;30.87;13.10;;;;;;;5.16;43.45;101773.53;5013717;28;20413;-78
2021/10/09 03:22:56;;;;;;;34.43;13.80;;;;;;;5.14;43.93;101781.94;5010055;28;20128;-78
2021/10/09 03:25:23;;;;;;;30.50;11.83;;;;;;;5.11;43.62;101782.63;5009291;28;20128;-78
2021/10/09 03:27:50;;;;;;;31.57;12.27;;;;;;;5.08;43.88;101785.19;5007777;28;20572;-78
2021/10/09 03:30:17;;;;;;;28.70;10.67;;;;;;;5.07;43.52;101783.63;5003728;28;20132;-77
2021/10/09 03:32:44;;;;;;;26.23;9.97;;;;;;;5.03;43.32;101780.81;5011795;28;20458;-79
2021/10/09 03:35:11;;;;;;;29.73;11.43;;;;;;;5.00;43.74;101792.28;5027225;28;20053;-79
2021/10/09 03:37:39;;;;;;;35.20;12.77;;;;;;;5.01;43.43;101780.38;5003242;28;20053;-78
2021/10/09 03:40:09;;;;;;;42.90;11.30;;;;;;;4.93;43.77;101786.69;5035006;28;20061;-78
2021/10/09 03:42:42;;;;;;;41.80;11.57;;;;;;;4.93;43.48;101783.22;5008006;28;20109;-77
2021/10/09 03:45:32;;;;;;;30.07;11.23;;;;;;;4.88;44.32;101784.22;5008903;28;20093;-79
2021/10/09 03:48:10;;;;;;;31.77;10.63;;;;;;;4.91;43.94;101766.63;5008716;28;20469;-77
2021/10/09 03:53:05;;;;;;;30.07;10.87;;;;;;;4.89;44.35;101774.25;5001033;28;20126;-78
2021/10/09 03:55:31;;;;;;;35.53;12.50;;;;;;;4.88;44.47;101784.22;5031289;28;20128;-79
2021/10/09 03:57:58;;;;;;;37.53;10.63;;;;;;;4.89;43.80;101788.50;5007767;28;20042;-78
2021/10/09 04:00:26;;;;;;;30.43;10.30;;;;;;;4.89;44.55;101780.41;5010530;28;20108;-77
2021/10/09 04:02:53;;;;;;;36.50;11.80;;;;;;;4.93;44.57;101775.16;5002523;28;20944;-78
2021/10/09 04:05:20;;;;;;;38.93;12.97;;;;;;;4.95;44.99;101779.06;5018094;28;20808;-77
2021/10/09 04:07:47;;;;;;;39.07;11.70;;;;;;;4.91;45.05;101783.56;4998928;28;20050;-78
2021/10/09 04:10:13;;;;;;;34.17;13.00;;;;;;;4.91;44.82;101783.56;4999031;28;20050;-78
2021/10/09 04:12:40;;;;;;;41.70;13.17;;;;;;;4.95;44.84;101789.84;5014063;28;20495;-78
2021/10/09 04:15:08;;;;;;;40.30;13.30;;;;;;;4.97;44.54;101798.31;5008603;28;20061;-79
2021/10/09 04:17:34;;;;;;;58.03;14.77;;;;;;;4.97;44.73;101797.53;5011313;28;20077;-78
2021/10/09 04:20:01;;;;;;;49.93;14.03;;;;;;;5.04;44.67;101797.75;5001916;28;20054;-77
2021/10/09 04:22:28;;;;;;;45.13;15.50;;;;;;;5.02;44.70;101795.41;5004484;28;20542;-77
2021/10/09 04:24:55;;;;;;;46.73;16.00;;;;;;;5.03;44.58;101794.28;5001773;28;20494;-78
2021/10/09 04:27:22;;;;;;;44.17;15.17;;;;;;;5.11;44.21;101798.78;4992642;28;20142;-78
2021/10/09 04:29:48;;;;;;;49.73;13.23;;;;;;;5.13;44.32;101784.97;5006170;28;20077;-77
2021/10/09 04:32:15;;;;;;;51.23;15.57;;;;;;;5.23;44.21;101783.69;5006036;28;20509;-79
2021/10/09 04:34:42;;;;;;;48.80;14.13;;;;;;;5.28;44.20;101764.63;5005889;28;20046;-78
2021/10/09 04:37:09;;;;;;;33.73;11.83;;;;;;;5.34;44.15;101779.41;5047916;28;20073;-78
2021/10/09 04:39:36;;;;;;;38.70;13.33;;;;;;;5.33;44.21;101773.25;5034997;28;20496;-78
2021/10/09 04:42:03;;;;;;;46.93;11.97;;;;;;;5.40;44.06;101775.34;5002055;28;20085;-78
2021/10/09 04:44:30;;;;;;;30.57;9.87;;;;;;;5.44;43.73;101773.53;5005346;28;20053;-77
2021/10/09 04:46:57;;;;;;;30.13;8.50;;;;;;;5.55;43.91;101765.75;5005642;28;20470;-77
2021/10/09 04:49:23;;;;;;;18.13;6.93;;;;;;;5.62;43.54;101780.22;5000355;28;20093;-77
2021/10/09 04:51:50;;;;;;;26.87;7.27;;;;;;;5.60;43.31;101777.06;4999268;28;20426;-77
2021/10/09 04:54:17;;;;;;;16.30;7.00;;;;;;;5.60;43.43;101777.06;5000334;28;20140;-78
2021/10/09 04:56:44;;;;;;;11.17;6.60;;;;;;;5.59;43.36;101778.19;5017705;28;20133;-78
2021/10/09 04:59:10;;;;;;;11.43;4.93;;;;;;;5.66;43.50;101777.63;5021074;28;20471;-76
2021/10/09 05:01:37;;;;;;;21.00;6.17;;;;;;;5.73;43.37;101775.88;5021212;28;20133;-78
2021/10/09 05:04:04;;;;;;;11.50;3.73;;;;;;;5.71;43.40;101778.13;4997615;28;20114;-77
2021/10/09 05:06:31;;;;;;;10.70;4.80;;;;;;;5.74;43.37;101777.44;5006827;28;20050;-77
2021/10/09 05:08:58;;;;;;;10.40;4.43;;;;;;;5.65;43.83;101779.53;5010166;28;20479;-77
2021/10/09 05:11:25;;;;;;;10.87;4.13;;;;;;;5.62;44.05;101774.81;5013925;28;20103;-80
2021/10/09 05:13:52;;;;;;;16.93;3.63;;;;;;;5.59;44.19;101783.59;5012688;28;20107;-79
2021/10/09 05:16:19;;;;;;;8.90;3.93;;;;;;;5.56;43.75;101776.19;5006506;28;20045;-78
2021/10/09 05:18:46;;;;;;;7.70;4.07;;;;;;;5.67;43.38;101781.88;5016836;28;20061;-79
2021/10/09 05:21:13;;;;;;;8.27;3.60;;;;;;;5.86;44.02;101783.91;5028089;28;20197;-78
2021/10/09 05:23:40;;;;;;;7.57;3.60;;;;;;;6.10;43.45;101786.50;5011610;28;20498;-77
2021/10/09 05:26:07;;;;;;;11.50;3.50;;;;;;;6.34;43.13;101789.03;4995573;28;20089;-75
2021/10/09 05:31:04;;;;;;;8.03;3.50;;;;;;;6.90;41.84;101786.06;5006371;28;20129;-77
2021/10/09 05:35:58;;;;;;;12.40;3.93;;;;;;;7.34;40.68;101786.63;4999266;28;20566;-78
2021/10/09 05:38:25;;;;;;;13.20;4.43;;;;;;;7.59;40.36;101779.00;5040370;28;20042;-76
2021/10/09 05:40:55;;;;;;;6.77;3.57;;;;;;;7.95;40.11;101785.88;4996018;28;20050;-76
2021/10/09 05:43:23;;;;;;;10.20;3.80;;;;;;;8.34;39.17;101781.16;4995928;28;20470;-75
2021/10/09 05:45:50;;;;;;;10.07;3.83;;;;;;;8.53;38.51;101785.69;5026290;28;20142;-75
2021/10/09 05:48:16;;;;;;;16.10;4.17;;;;;;;8.94;38.54;101775.88;5047145;28;20045;-77
2021/10/09 06:02:03;;;;;;;9.13;3.63;;;;;;;9.56;36.14;101766.16;5011802;28;20470;-78
2021/10/09 06:59:30;;;;;;;14.87;4.40;;;;;;;11.19;32.89;101779.47;5006364;28;20052;-74
2021/10/09 07:01:58;;;;;;;7.57;3.97;;;;;;;11.41;32.66;101772.19;5009343;28;20078;-74
2021/10/09 07:04:25;;;;;;;9.23;4.53;;;;;;;10.93;33.00;101780.50;5003701;28;20050;-73
2021/10/09 07:06:53;;;;;;;14.27;4.87;;;;;;;11.38;32.81;101783.81;5005232;28;20136;-73
2021/10/09 07:09:20;;;;;;;7.80;3.97;;;;;;;11.73;32.41;101775.78;5012791;28;20132;-73
2021/10/09 07:11:47;;;;;;;8.83;4.13;;;;;;;12.15;31.28;101766.91;5015504;28;20136;-74
2021/10/09 07:14:14;;;;;;;7.93;4.57;;;;;;;12.13;30.89;101785.56;5011044;28;20140;-74
2021/10/09 07:16:41;;;;;;;13.93;4.80;;;;;;;12.52;31.38;101771.94;5013364;28;20133;-74
2021/10/09 07:19:08;;;;;;;10.80;4.67;;;;;;;12.84;30.44;101762.94;5007805;28;20050;-74
2021/10/09 07:21:34;;;;;;;8.40;4.67;;;;;;;13.24;29.30;101765.16;5010736;28;20081;-75
2021/10/09 07:24:21;;;;;;;12.23;5.60;;;;;;;13.55;28.89;101762.69;5005194;28;20079;-73
2021/10/09 07:26:48;;;;;;;8.57;3.97;;;;;;;13.57;29.67;101772.03;5009910;28;20176;-73
2021/10/09 07:29:15;;;;;;;13.63;4.90;;;;;;;13.52;29.04;101774.38;5009832;28;20077;-73
2021/10/09 07:31:43;;;;;;;15.07;5.17;;;;;;;14.15;28.95;101766.97;5009827;28;20097;-72
2021/10/09 07:34:10;;;;;;;11.00;4.40;;;;;;;14.15;28.76;101772.44;5004910;28;20147;-73
2021/10/09 07:36:37;;;;;;;12.67;5.57;;;;;;;13.44;29.08;101762.75;5036598;28;20129;-72
2021/10/09 07:39:04;;;;;;;13.43;5.17;;;;;;;13.24;29.59;101769.84;5004918;28;20426;-72
2021/10/09 07:41:30;;;;;;;13.87;4.63;;;;;;;12.98;30.27;101768.38;5009500;28;20133;-74
2021/10/09 07:43:57;;;;;;;12.73;4.67;;;;;;;13.07;30.40;101770.66;5005869;28;20065;-72
2021/10/09 07:46:24;;;;;;;10.80;4.40;;;;;;;13.00;30.10;101766.00;5005830;28;20054;-73
2021/10/09 07:48:51;;;;;;;12.17;4.77;;;;;;;12.85;30.37;101759.81;5007263;28;20072;-74
2021/10/09 07:51:18;;;;;;;11.17;4.07;;;;;;;12.56;30.16;101759.09;5036896;28;20492;-74
2021/10/09 07:53:45;;;;;;;9.67;4.57;;;;;;;12.62;30.53;101764.94;5009760;28;20136;-72
2021/10/09 07:56:11;;;;;;;12.53;4.33;;;;;;;12.55;30.44;101768.44;5011485;28;20049;-74
2021/10/09 07:58:38;;;;;;;16.53;5.13;;;;;;;12.56;29.99;101778.16;5008014;28;20137;-74
2021/10/09 08:01:05;;;;;;;17.23;4.60;;;;;;;12.49;29.78;101759.13;5006410;28;20097;-73
2021/10/09 08:03:32;;;;;;;11.00;4.20;;;;;;;12.45;29.39;101750.19;4997099;28;20108;-74
2021/10/09 08:06:01;;;;;;;7.93;3.80;;;;;;;12.47;29.28;101757.97;5010151;28;20046;-75
2021/10/09 08:08:28;;;;;;;11.10;4.00;;;;;;;12.69;29.15;101761.44;5010379;28;20137;-73
2021/10/09 08:10:55;;;;;;;14.90;4.23;;;;;;;13.09;28.49;101747.28;5020597;28;20136;-76
2021/10/09 08:13:24;;;;;;;9.70;5.50;;;;;;;13.59;27.98;101747.84;5009058;28;20692;-72
2021/10/09 08:15:51;;;;;;;9.27;3.80;;;;;;;14.14;26.66;101749.03;5009885;28;20490;-74
2021/10/09 08:18:18;;;;;;;14.77;4.80;;;;;;;14.51;26.68;101740.13;5016512;28;20068;-74
2021/10/09 08:20:47;;;;;;;12.97;4.77;;;;;;;14.78;25.78;101737.53;5012966;28;20132;-75
2021/10/09 08:23:24;;;;;;;15.23;4.20;;;;;;;15.32;25.52;101733.72;5009458;28;20565;-74
2021/10/09 08:39:30;;;;;;;9.23;4.20;;;;;;;16.29;24.36;101722.09;5009368;28;20073;-73
2021/10/09 08:41:57;;;;;;;13.37;4.87;;;;;;;16.43;24.20;101724.59;5008864;28;20136;-73
2021/10/09 08:44:24;;;;;;;12.50;4.50;;;;;;;16.42;23.80;101731.25;5008822;28;20059;-73
2021/10/09 08:46:51;;;;;;;11.57;5.85;;;;;;;16.68;23.95;101735.88;5006964;28;20089;-73
2021/10/09 08:49:18;;;;;;;15.10;4.35;;;;;;;16.83;23.00;101739.13;5008992;28;20050;-73
2021/10/09 08:51:50;;;;;;;11.55;5.47;;;;;;;16.79;23.26;101743.13;5008128;28;20053;-72
2021/10/09 08:54:17;;;;;;;9.65;4.78;;;;;;;17.07;22.57;101737.06;5008884;28;20520;-74
2021/10/09 08:56:47;;;;;;;9.90;4.95;;;;;;;17.34;22.29;101732.19;5008300;28;20133;-73
2021/10/09 08:59:25;;;;;;;12.45;4.57;;;;;;;17.21;22.03;101736.78;5008931;28;20422;-73
2021/10/09 09:02:23;;;;;;;11.38;4.18;;;;;;;17.18;21.77;101736.88;5006267;28;20058;-73
2021/10/09 09:05:18;;;;;;;11.27;4.97;;;;;;;17.53;22.33;101735.31;5004208;28;20477;-74
2021/10/09 09:07:59;;;;;;;11.02;4.55;;;;;;;17.73;22.11;101722.31;4999636;28;20085;-73
2021/10/09 09:41:24;;;;;;;11.15;5.75;;;;;;;13.89;24.89;101705.53;5006961;28;20092;-73
2021/10/09 09:43:53;;;;;;;10.87;5.70;;;;;;;13.79;25.04;101718.09;5012283;28;20142;-75
2021/10/09 09:46:26;;;;;;;9.43;5.33;;;;;;;13.97;24.63;101688.69;5027336;28;20141;-74
2021/10/09 09:48:53;;;;;;;11.00;5.05;;;;;;;13.91;24.52;101714.91;5027561;28;20431;-74
2021/10/09 09:51:22;;;;;;;12.83;6.30;;;;;;;13.90;24.18;101696.19;5011016;28;20134;-73
2021/10/09 09:53:50;;;;;;;10.23;5.87;;;;;;;14.06;24.19;101698.38;5010821;28;20473;-74
2021/10/09 09:56:18;;;;;;;9.53;6.13;;;;;;;14.09;24.32;101709.28;5007641;28;20057;-73
2021/10/09 09:58:51;;;;;;;9.20;5.63;;;;;;;13.90;24.26;101707.88;5011482;28;20057;-73
2021/10/09 10:01:19;;;;;;;18.80;6.13;;;;;;;13.80;24.28;101708.72;5011827;28;20077;-75
2021/10/09 10:03:47;;;;;;;9.10;5.07;;;;;;;13.68;24.13;101711.94;5012006;28;20077;-73
2021/10/09 10:06:15;;;;;;;11.67;6.40;;;;;;;13.44;24.23;101710.94;5011766;28;20123;-75
2021/10/09 10:08:42;;;;;;;12.40;5.43;;;;;;;13.32;23.87;101728.50;5011742;28;20084;-74
2021/10/09 10:11:11;;;;;;;13.07;5.90;;;;;;;13.28;24.34;101714.13;5006614;28;20077;-73
2021/10/09 10:13:39;;;;;;;10.53;5.80;;;;;;;13.25;24.18;101700.50;5011512;28;20196;-73
2021/10/09 10:16:09;;;;;;;12.70;5.97;;;;;;;13.21;24.65;101711.44;5011199;28;20129;-73
2021/10/09 10:18:51;;;;;;;10.63;6.50;;;;;;;13.05;23.75;101702.13;5011986;28;20498;-73
2021/10/09 10:21:44;;;;;;;11.60;6.40;;;;;;;13.06;24.29;101704.44;5011369;28;20067;-74
2021/10/09 10:24:13;;;;;;;10.00;5.70;;;;;;;13.02;24.53;101703.69;5008463;28;20121;-74
2021/10/09 10:26:40;;;;;;;12.60;5.80;;;;;;;12.97;24.61;101707.63;5011284;28;20107;-74
2021/10/09 10:29:13;;;;;;;12.30;6.23;;;;;;;12.95;24.73;101703.72;5014104;28;20125;-73
2021/10/09 10:32:12;;;;;;;10.97;6.50;;;;;;;12.90;24.63;101701.41;5008316;28;20651;-73
2021/10/09 10:34:39;;;;;;;11.93;5.57;;;;;;;12.86;24.70;101685.06;5018505;28;20092;-75
2021/10/09 10:37:26;;;;;;;11.57;6.70;;;;;;;12.87;24.87;101686.63;5006977;28;20581;-73
2021/10/09 10:39:54;;;;;;;13.17;6.27;;;;;;;12.83;24.31;101690.53;5014739;28;20053;-75
2021/10/09 10:42:30;;;;;;;13.03;6.50;;;;;;;12.76;23.86;101687.81;5009579;28;20188;-74
2021/10/09 10:51:05;;;;;;;12.07;6.00;;;;;;;12.72;23.23;101687.84;5007739;28;20486;-73
2021/10/09 10:54:06;;;;;;;11.43;5.87;;;;;;;12.74;23.88;101674.63;5023644;28;20077;-74
2021/10/09 10:56:34;;;;;;;22.17;7.70;;;;;;;12.79;24.31;101685.09;5003446;28;20457;-74
2021/10/09 10:59:56;;;;;;;14.37;7.27;;;;;;;12.81;23.82;101682.75;5008808;28;20045;-73
2021/10/09 11:02:25;;;;;;;15.03;7.17;;;;;;;12.79;23.43;101681.59;5024549;28;20112;-75
2021/10/09 11:05:00;;;;;;;12.97;6.53;;;;;;;12.77;23.20;101687.44;5010705;28;20062;-74
2021/10/09 11:07:30;;;;;;;13.87;6.67;;;;;;;12.77;22.77;101678.47;5010149;28;20092;-75
2021/10/09 11:10:04;;;;;;;12.63;7.30;;;;;;;12.72;22.48;101670.72;5011236;28;20451;-75
2021/10/09 11:12:35;;;;;;;16.43;6.13;;;;;;;12.70;22.81;101671.13;5006814;28;20475;-73
2021/10/09 11:15:05;;;;;;;10.87;6.50;;;;;;;12.70;22.86;101654.00;5008918;28;20081;-71
2021/10/09 11:17:35;;;;;;;12.03;6.33;;;;;;;12.70;23.20;101675.78;5008996;28;20088;-73
2021/10/09 11:20:07;;;;;;;12.70;6.60;;;;;;;12.69;23.12;101674.25;5007895;28;20490;-75
2021/10/09 11:22:38;;;;;;;13.33;6.60;;;;;;;12.67;22.58;101679.31;5009936;28;20139;-75
2021/10/09 11:25:06;;;;;;;12.77;7.20;;;;;;;12.63;22.72;101655.56;5008145;28;20091;-74
2021/10/09 11:27:37;;;;;;;15.77;7.47;;;;;;;12.61;22.58;101652.47;5006430;28;20133;-74
2021/10/09 11:30:09;;;;;;;15.90;7.30;;;;;;;12.60;22.36;101655.56;5010426;28;20153;-74
2021/10/09 11:32:39;;;;;;;13.53;7.60;;;;;;;12.58;21.99;101666.88;5010411;28;20050;-74
2021/10/09 11:35:07;;;;;;;17.00;7.67;;;;;;;12.60;22.15;101656.34;5013579;28;20148;-75
2021/10/09 11:37:43;;;;;;;15.43;7.47;;;;;;;12.66;22.27;101653.22;5001216;28;20049;-73
2021/10/09 11:40:10;;;;;;;23.77;7.37;;;;;;;12.66;22.26;101642.34;5006811;28;20401;-73
2021/10/09 11:43:11;;;;;;;12.27;7.13;;;;;;;12.70;22.15;101637.66;5008434;28;20080;-73
2021/10/09 11:45:50;;;;;;;14.30;7.00;;;;;;;12.74;22.23;101632.97;5010515;28;20142;-74
2021/10/09 11:56:46;;;;;;;17.57;8.47;;;;;;;12.87;22.42;101643.00;5009558;28;20077;-75
2021/10/09 11:59:16;;;;;;;15.37;6.80;;;;;;;12.90;22.34;101653.13;5009968;28;20130;-74
2021/10/09 12:01:44;;;;;;;16.37;7.30;;;;;;;12.94;22.12;101634.03;5009692;28;20495;-74
2021/10/09 12:04:22;;;;;;;13.97;7.30;;;;;;;12.94;21.77;101631.31;5008229;28;20625;-73
2021/10/09 12:06:57;;;;;;;16.83;7.43;;;;;;;12.96;22.76;101635.19;5009422;28;20096;-74
2021/10/09 12:09:45;;;;;;;15.40;6.37;;;;;;;13.02;22.23;101649.16;5009659;28;20138;-74
2021/10/09 12:12:14;;;;;;;11.47;6.83;;;;;;;12.99;21.78;101645.28;5009805;28;20104;-75
2021/10/09 12:14:41;;;;;;;15.50;7.83;;;;;;;13.05;22.18;101648.38;5003386;28;20088;-75
2021/10/09 12:17:08;;;;;;;15.63;7.40;;;;;;;13.09;22.49;101659.25;5009873;28;20133;-73
2021/10/09 12:19:35;;;;;;;12.83;7.53;;;;;;;13.11;22.43;101652.25;5006508;28;20141;-73
2021/10/09 12:22:05;;;;;;;16.53;7.33;;;;;;;13.14;22.08;101661.59;4996081;28;20172;-73
2021/10/09 12:24:35;;;;;;;17.53;7.30;;;;;;;13.21;22.37;101661.59;4999907;28;20096;-75
2021/10/09 12:27:15;;;;;;;17.57;7.13;;;;;;;13.23;21.83;101648.28;5001036;28;20557;-75
2021/10/09 12:29:55;;;;;;;12.37;6.90;;;;;;;13.22;22.06;101644.03;5008536;28;20138;-72
2021/10/09 12:32:22;;;;;;;22.07;8.23;;;;;;;13.23;22.57;101653.75;5007662;28;20073;-74
2021/10/09 12:35:11;;;;;;;15.37;7.63;;;;;;;13.14;21.70;101656.13;5004512;28;20117;-73
2021/10/09 12:38:03;;;;;;;19.37;7.60;;;;;;;13.03;21.15;101647.22;5019155;28;20081;-73
2021/10/09 12:40:51;;;;;;;15.27;7.07;;;;;;;13.00;21.44;101651.50;5009993;28;20551;-72
2021/10/09 12:43:20;;;;;;;15.97;7.67;;;;;;;12.98;21.75;101648.44;5007651;28;20058;-73
2021/10/09 12:45:47;;;;;;;11.77;7.13;;;;;;;12.93;21.53;101667.91;5008800;28;20077;-72
2021/10/09 12:48:17;;;;;;;13.07;7.70;;;;;;;12.92;21.15;101655.47;5008089;28;20046;-74
2021/10/09 12:50:44;;;;;;;19.03;7.30;;;;;;;12.93;21.50;101662.47;5002954;28;20528;-73
2021/10/09 12:53:11;;;;;;;16.00;7.37;;;;;;;12.89;21.36;101650.81;5009358;28;20053;-74
2021/10/09 12:55:39;;;;;;;18.20;7.80;;;;;;;12.86;21.49;101652.38;5005387;28;20141;-72
2021/10/09 12:58:09;;;;;;;15.57;7.40;;;;;;;12.89;21.72;101661.69;5011475;28;20058;-73
2021/10/09 13:00:38;;;;;;;15.43;7.40;;;;;;;12.87;21.63;101661.31;5009952;28;20068;-74
2021/10/09 13:03:05;;;;;;;18.20;6.87;;;;;;;12.89;21.80;101656.25;5005213;28;20128;-73
2021/10/09 13:05:33;;;;;;;15.30;7.00;;;;;;;12.93;21.81;101651.56;5000271;28;20080;-74
2021/10/09 13:08:01;;;;;;;17.83;7.67;;;;;;;12.92;21.77;101660.91;5041618;28;20085;-73
2021/10/09 13:10:33;;;;;;;22.53;8.03;;;;;;;12.93;22.03;101657.00;5007880;28;20088;-74
2021/10/09 13:13:00;;;;;;;17.67;7.63;;;;;;;12.93;22.02;101662.47;5008797;28;20054;-73
2021/10/09 13:15:27;;;;;;;13.23;7.10;;;;;;;12.96;22.18;101656.22;5009113;28;20081;-74
2021/10/09 13:17:54;;;;;;;23.87;8.40;;;;;;;12.96;21.93;101648.06;5008474;28;20089;-73
2021/10/09 13:20:27;;;;;;;16.63;7.00;;;;;;;12.81;21.93;101652.78;5004368;28;20053;-75
2021/10/09 13:22:54;;;;;;;13.97;7.87;;;;;;;12.73;22.13;101647.75;5011852;28;20116;-74
2021/10/09 13:25:28;;;;;;;22.05;8.10;;;;;;;12.70;22.45;101651.28;5010795;28;20054;-74
2021/10/09 13:27:55;;;;;;;17.03;8.47;;;;;;;12.75;22.31;101657.09;5008711;28;20061;-75
2021/10/09 13:30:22;;;;;;;19.90;8.43;;;;;;;12.76;22.46;101655.13;5010519;28;20081;-75
2021/10/09 13:32:49;;;;;;;19.23;8.07;;;;;;;12.75;22.76;101651.66;5012666;28;20106;-72
2021/10/09 13:35:16;;;;;;;20.33;8.90;;;;;;;12.75;22.30;101656.31;5007624;28;20092;-74
2021/10/09 13:37:54;;;;;;;21.00;8.53;;;;;;;12.69;22.01;101652.44;5007178;28;20054;-74
2021/10/09 13:40:25;;;;;;;16.80;8.63;;;;;;;12.67;22.09;101643.88;5009452;28;20116;-73
2021/10/09 13:42:52;;;;;;;15.53;8.23;;;;;;;12.75;22.26;101656.31;5012327;28;20545;-73
2021/10/09 13:45:19;;;;;;;23.30;9.20;;;;;;;12.73;22.64;101653.22;5013980;28;20145;-74
2021/10/09 13:47:46;;;;;;;16.37;8.60;;;;;;;12.69;22.26;101647.00;5032160;28;20108;-73
2021/10/09 13:50:13;;;;;;;16.37;8.27;;;;;;;12.68;22.09;101646.22;5013015;28;20132;-73
2021/10/09 13:52:40;;;;;;;15.47;8.43;;;;;;;12.70;22.61;101654.00;5001345;28;20089;-73
2021/10/09 13:55:08;;;;;;;17.40;8.03;;;;;;;12.74;22.41;101660.22;5009111;28;20600;-73